Time;durP1;ratioP1;P1;durP2;ratioP2;P2;SDS_P1;SDS_P2;PMS_P1;PMS_P2;Temp;Humidity;BMP_temperature;BMP_pressure;BME280_temperature;BME280_humidity;BME280_pressure;Samples;Min_cycle;Max_cycle;Signal;HPM_P1;HPM_P2
2021/07/09 00:00:29;;;;;;;4.00;3.70;;;;;;;20.11;70.70;101386.34;694924;28;136927;-62
2021/07/09 00:00:50;;;;;;;4.60;3.70;;;;;;;20.12;70.79;101385.31;698772;28;35643;-62
2021/07/09 00:01:11;;;;;;;6.25;3.80;;;;;;;20.11;70.89;101381.72;698995;28;6336;-62
2021/07/09 00:01:32;;;;;;;5.90;3.88;;;;;;;20.11;70.61;101383.63;699744;28;22580;-61
2021/07/09 00:01:54;;;;;;;4.28;3.72;;;;;;;20.11;70.78;101383.63;699593;28;22295;-63
2021/07/09 00:02:17;;;;;;;3.78;3.47;;;;;;;20.11;70.62;101378.13;699051;28;23571;-62
2021/07/09 00:02:38;;;;;;;3.63;3.40;;;;;;;20.12;70.62;101377.06;697078;28;92291;-62
2021/07/09 00:03:02;;;;;;;4.55;3.90;;;;;;;20.12;70.62;101382.56;699363;28;22420;-62
2021/07/09 00:03:23;;;;;;;4.38;3.75;;;;;;;20.13;70.57;101378.75;697119;28;90432;-63
2021/07/09 00:03:44;;;;;;;3.90;3.58;;;;;;;20.14;70.65;101388.66;699042;28;22380;-60
2021/07/09 00:04:07;;;;;;;4.53;3.80;;;;;;;20.13;70.63;101382.34;698718;28;22464;-62
2021/07/09 00:04:28;;;;;;;4.15;3.75;;;;;;;20.14;70.77;101385.91;698166;28;46392;-61
2021/07/09 00:04:49;;;;;;;4.68;3.80;;;;;;;20.14;70.73;101386.75;698937;28;23755;-62
2021/07/09 00:05:11;;;;;;;3.75;3.55;;;;;;;20.13;70.96;101376.84;698744;28;23443;-62
2021/07/09 00:05:32;;;;;;;3.50;3.28;;;;;;;20.15;70.58;101382.13;696991;28;46297;-62
2021/07/09 00:05:53;;;;;;;3.78;3.47;;;;;;;20.14;70.58;101377.69;699440;28;23469;-62
2021/07/09 00:06:14;;;;;;;4.20;3.90;;;;;;;20.15;70.54;101380.19;699592;28;18367;-62
2021/07/09 00:06:37;;;;;;;3.92;3.60;;;;;;;20.15;70.47;101380.19;699606;28;22476;-62
2021/07/09 00:06:59;;;;;;;3.78;3.45;;;;;;;20.16;70.58;101378.31;697554;28;68573;-62
2021/07/09 00:07:20;;;;;;;4.28;3.70;;;;;;;20.15;70.50;101373.88;698428;28;44528;-62
2021/07/09 00:07:41;;;;;;;4.00;3.60;;;;;;;20.15;70.49;101376.63;699645;28;22271;-62
2021/07/09 00:08:02;;;;;;;3.97;3.67;;;;;;;20.14;70.68;101378.53;699559;28;21525;-62
2021/07/09 00:08:23;;;;;;;4.00;3.70;;;;;;;20.13;70.51;101373.28;698491;28;45264;-62
2021/07/09 00:08:46;;;;;;;3.75;3.53;;;;;;;20.12;70.63;101372.41;698872;28;23474;-61
2021/07/09 00:09:07;;;;;;;3.80;3.45;;;;;;;20.13;70.57;101368.63;698252;28;44063;-62
2021/07/09 00:09:28;;;;;;;4.72;3.75;;;;;;;20.13;70.62;101365.06;698486;28;21558;-62
2021/07/09 00:09:51;;;;;;;4.95;3.63;;;;;;;20.12;70.69;101369.69;699210;28;23540;-62
2021/07/09 00:10:12;;;;;;;3.53;3.22;;;;;;;20.12;70.59;101368.84;697866;28;70328;-62
2021/07/09 00:10:33;;;;;;;3.88;3.60;;;;;;;20.12;70.53;101369.69;698959;28;23399;-62
2021/07/09 00:10:54;;;;;;;3.95;3.63;;;;;;;20.12;70.63;101368.84;698833;28;21525;-62
2021/07/09 00:11:16;;;;;;;4.15;3.75;;;;;;;20.09;70.71;101361.06;698593;28;22457;-62
2021/07/09 00:11:39;;;;;;;3.90;3.60;;;;;;;20.09;70.57;101367.38;698242;28;47198;-63
2021/07/09 00:12:02;;;;;;;5.82;3.60;;;;;;;20.10;70.71;101362.75;697290;28;70319;-62
2021/07/09 00:12:23;;;;;;;6.28;3.63;;;;;;;20.09;70.83;101364.66;697005;28;70508;-62
2021/07/09 00:12:45;;;;;;;4.32;3.67;;;;;;;20.09;70.74;101367.38;699195;28;21533;-62
2021/07/09 00:13:06;;;;;;;4.65;3.58;;;;;;;20.08;70.93;101364.91;699223;28;22139;-62
2021/07/09 00:13:27;;;;;;;4.20;3.80;;;;;;;20.09;70.77;101364.66;699653;28;24286;-62
2021/07/09 00:13:49;;;;;;;6.63;4.72;;;;;;;20.08;70.96;101359.41;698233;28;23752;-63
2021/07/09 00:14:11;;;;;;;14.68;10.73;;;;;;;20.09;71.01;101353.69;696822;28;70165;-62
2021/07/09 00:14:34;;;;;;;33.40;20.92;;;;;;;20.08;70.84;101351.19;699060;28;22649;-62
2021/07/09 00:14:55;;;;;;;29.00;18.70;;;;;;;20.09;70.89;101352.84;697279;28;69559;-62
2021/07/09 00:15:17;;;;;;;18.05;12.27;;;;;;;20.10;70.87;101352.63;697977;28;46304;-62
2021/07/09 00:15:38;;;;;;;7.95;6.63;;;;;;;20.10;70.70;101347.13;698940;28;23303;-62
2021/07/09 00:15:59;;;;;;;7.30;6.53;;;;;;;20.08;70.52;101349.28;699880;28;12619;-62
2021/07/09 00:16:20;;;;;;;10.03;7.20;;;;;;;20.10;70.70;101346.31;698915;28;29442;-62
2021/07/09 00:16:42;;;;;;;6.40;5.30;;;;;;;20.09;70.84;101347.38;698769;28;42314;-62
2021/07/09 00:17:05;;;;;;;4.43;4.10;;;;;;;20.10;70.93;101346.31;697635;28;44245;-62
2021/07/09 00:17:26;;;;;;;4.57;4.18;;;;;;;20.10;70.84;101346.31;698438;28;45245;-63
2021/07/09 00:17:47;;;;;;;4.68;4.28;;;;;;;20.10;70.80;101346.31;699420;28;24335;-62
2021/07/09 00:18:08;;;;;;;4.50;4.10;;;;;;;20.09;70.72;101347.38;699661;28;18489;-62
2021/07/09 00:18:30;;;;;;;4.75;4.00;;;;;;;20.11;70.80;101345.22;699523;28;24416;-62
2021/07/09 00:18:52;;;;;;;4.15;3.85;;;;;;;20.10;70.76;101349.88;698241;28;45247;-62
2021/07/09 00:19:13;;;;;;;4.20;3.80;;;;;;;20.11;70.79;101353.44;698059;28;47526;-62
2021/07/09 00:19:35;;;;;;;4.15;3.83;;;;;;;20.11;70.84;101353.44;698779;28;18987;-61
2021/07/09 00:19:56;;;;;;;4.10;3.80;;;;;;;20.12;70.60;101352.41;698589;28;44462;-62
2021/07/09 00:20:18;;;;;;;4.00;3.63;;;;;;;20.13;70.73;101360.41;699335;28;22187;-62
2021/07/09 00:20:39;;;;;;;4.30;3.60;;;;;;;20.13;70.80;101354.09;698623;28;44374;-62
2021/07/09 00:21:00;;;;;;;4.43;3.63;;;;;;;20.13;70.67;101362.31;699247;28;22408;-62
2021/07/09 00:21:21;;;;;;;4.07;3.78;;;;;;;20.13;70.56;101362.31;699367;28;20510;-62
2021/07/09 00:21:45;;;;;;;4.10;3.70;;;;;;;20.13;70.70;101362.31;699029;28;23568;-62
2021/07/09 00:22:06;;;;;;;4.03;3.63;;;;;;;20.13;70.57;101362.31;698946;28;92399;-62
2021/07/09 00:22:27;;;;;;;4.30;3.90;;;;;;;20.13;70.54;101356.81;702525;28;11151;-62
2021/07/09 00:22:48;;;;;;;4.25;3.88;;;;;;;20.14;70.61;101366.72;702675;28;7510;-62
2021/07/09 00:23:10;;;;;;;4.60;3.70;;;;;;;20.14;70.58;101364.81;698156;28;23459;-62
2021/07/09 00:23:32;;;;;;;4.10;3.78;;;;;;;20.15;70.58;101363.75;699184;28;23500;-62
2021/07/09 00:23:53;;;;;;;3.97;3.63;;;;;;;20.15;70.47;101361.00;698176;28;46760;-62
2021/07/09 00:24:14;;;;;;;3.95;3.50;;;;;;;20.15;70.65;101363.75;697490;28;21819;-62
2021/07/09 00:24:35;;;;;;;4.05;3.70;;;;;;;20.15;70.56;101366.50;697938;28;22288;-62
2021/07/09 00:24:57;;;;;;;4.22;3.63;;;;;;;20.15;70.44;101354.69;697312;28;41380;-62
2021/07/09 00:25:19;;;;;;;4.10;3.70;;;;;;;20.15;70.47;101366.50;698983;28;23459;-62
2021/07/09 00:25:40;;;;;;;3.92;3.63;;;;;;;20.16;70.53;101365.44;698329;28;46276;-62
2021/07/09 00:26:01;;;;;;;4.13;3.72;;;;;;;20.16;70.45;101362.69;699364;28;21839;-62
2021/07/09 00:26:23;;;;;;;4.20;3.80;;;;;;;20.16;70.62;101365.44;699335;28;22474;-62
2021/07/09 00:26:45;;;;;;;3.90;3.60;;;;;;;20.19;70.58;101363.28;698416;28;45021;-62
2021/07/09 00:27:06;;;;;;;4.33;3.93;;;;;;;20.16;70.44;101354.47;698106;28;44083;-62
2021/07/09 00:27:28;;;;;;;4.10;3.80;;;;;;;20.19;70.56;101363.28;698576;28;45222;-62
2021/07/09 00:27:49;;;;;;;3.58;3.38;;;;;;;20.17;70.52;101361.63;698124;28;46288;-62
2021/07/09 00:28:11;;;;;;;3.75;3.45;;;;;;;20.19;70.60;101361.41;699846;28;1049;-62
2021/07/09 00:28:32;;;;;;;4.18;3.55;;;;;;;20.20;70.61;101359.50;699244;28;15123;-62
2021/07/09 00:28:53;;;;;;;3.95;3.55;;;;;;;20.17;70.56;101358.91;699367;28;11577;-62
2021/07/09 00:29:15;;;;;;;4.03;3.72;;;;;;;20.20;70.60;101356.75;698690;28;16560;-62
2021/07/09 00:29:36;;;;;;;3.72;3.42;;;;;;;20.18;70.71;101359.72;697228;28;69557;-62
2021/07/09 00:29:57;;;;;;;4.40;3.45;;;;;;;20.20;70.49;101359.50;699841;28;14439;-62
2021/07/09 00:30:18;;;;;;;4.00;3.60;;;;;;;20.18;70.80;101356.97;698700;28;47191;-62
2021/07/09 00:30:40;;;;;;;4.00;3.65;;;;;;;20.16;70.89;101354.47;700069;28;1391;-62
2021/07/09 00:31:03;;;;;;;3.95;3.60;;;;;;;20.17;70.87;101355.28;699512;28;5696;-62
2021/07/09 00:31:24;;;;;;;3.80;3.50;;;;;;;20.17;71.04;101353.41;698110;28;57597;-62
2021/07/09 00:31:45;;;;;;;3.92;3.63;;;;;;;20.16;71.13;101359.13;699555;28;22407;-62
2021/07/09 00:32:09;;;;;;;3.88;3.58;;;;;;;20.15;71.24;101354.69;698978;28;23244;-62
2021/07/09 00:32:30;;;;;;;3.83;3.42;;;;;;;20.15;71.04;101350.03;698016;28;61516;-62
2021/07/09 00:32:52;;;;;;;4.18;3.80;;;;;;;20.15;71.05;101351.94;699635;28;1390;-62
2021/07/09 00:33:13;;;;;;;4.65;3.72;;;;;;;20.15;71.31;101357.44;699418;28;22401;-62
2021/07/09 00:33:34;;;;;;;4.03;3.63;;;;;;;20.15;71.39;101355.50;699235;28;24533;-62
2021/07/09 00:33:55;;;;;;;4.15;3.85;;;;;;;20.12;71.33;101338.69;699070;28;15648;-62
2021/07/09 00:34:19;;;;;;;4.35;3.95;;;;;;;20.14;71.51;101351.13;698289;28;42258;-62
2021/07/09 00:34:40;;;;;;;4.10;3.70;;;;;;;20.14;71.28;101350.25;697387;28;68903;-63
2021/07/09 00:35:01;;;;;;;4.15;3.70;;;;;;;20.14;71.28;101353.00;698907;28;12146;-62
2021/07/09 00:35:22;;;;;;;4.10;3.80;;;;;;;20.13;71.46;101349.44;696946;28;23517;-62
2021/07/09 00:35:44;;;;;;;3.97;3.63;;;;;;;20.14;71.56;101351.13;699207;28;11303;-62
2021/07/09 00:36:06;;;;;;;3.95;3.65;;;;;;;20.13;71.46;101346.69;698047;28;45895;-62
2021/07/09 00:36:27;;;;;;;3.97;3.67;;;;;;;20.13;71.37;101349.44;697562;28;63797;-62
2021/07/09 00:36:49;;;;;;;3.95;3.70;;;;;;;20.12;71.52;101347.75;698572;28;43709;-62
2021/07/09 00:37:10;;;;;;;4.57;3.72;;;;;;;20.13;71.35;101348.59;697718;28;44714;-62
2021/07/09 00:37:31;;;;;;;4.63;3.63;;;;;;;20.13;71.58;101351.34;698972;28;23707;-62
2021/07/09 00:37:53;;;;;;;6.20;3.53;;;;;;;20.12;71.62;101342.25;699210;28;23406;-62
2021/07/09 00:38:14;;;;;;;4.20;3.80;;;;;;;20.11;71.67;101351.56;698741;28;34602;-62
2021/07/09 00:38:35;;;;;;;4.03;3.67;;;;;;;20.07;71.79;101344.03;699522;28;20319;-62
2021/07/09 00:38:56;;;;;;;6.03;3.92;;;;;;;20.10;71.84;101346.31;699035;28;22399;-60
2021/07/09 00:39:18;;;;;;;4.90;3.97;;;;;;;20.09;72.04;101339.97;698671;28;23428;-62
2021/07/09 00:39:39;;;;;;;4.30;4.00;;;;;;;20.08;71.75;101342.97;698060;28;46359;-62
2021/07/09 00:40:01;;;;;;;4.15;3.85;;;;;;;20.08;71.97;101342.97;699542;28;21554;-62
2021/07/09 00:40:23;;;;;;;3.95;3.70;;;;;;;20.06;71.89;101340.44;697703;28;46307;-62
2021/07/09 00:40:44;;;;;;;4.05;3.60;;;;;;;20.07;72.04;101344.03;698931;28;23906;-62
2021/07/09 00:41:06;;;;;;;3.83;3.53;;;;;;;20.06;71.87;101345.06;698748;28;22398;-62
2021/07/09 00:41:27;;;;;;;3.97;3.67;;;;;;;20.06;71.98;101343.19;698238;28;46643;-62
2021/07/09 00:41:48;;;;;;;5.05;3.88;;;;;;;20.07;71.94;101333.88;698420;28;45405;-62
2021/07/09 00:42:10;;;;;;;5.80;3.90;;;;;;;20.06;71.90;101337.72;699128;28;22372;-62
2021/07/09 00:42:32;;;;;;;4.47;4.07;;;;;;;20.07;72.10;101335.78;698198;28;44405;-63
2021/07/09 00:42:53;;;;;;;4.15;3.80;;;;;;;20.07;72.20;101338.53;698974;28;22409;-62
2021/07/09 00:43:14;;;;;;;4.00;3.70;;;;;;;20.06;72.18;101336.84;699016;28;21897;-62
2021/07/09 00:43:35;;;;;;;3.78;3.47;;;;;;;20.06;72.06;101336.84;698980;28;22348;-62
2021/07/09 00:43:57;;;;;;;4.20;3.90;;;;;;;20.06;72.15;101331.34;697960;28;37195;-62
2021/07/09 00:44:18;;;;;;;4.00;3.60;;;;;;;20.04;72.19;101323.38;698597;28;47355;-62
2021/07/09 00:44:39;;;;;;;4.03;3.63;;;;;;;20.05;72.14;101327.78;699183;28;30092;-62
2021/07/09 00:45:01;;;;;;;4.30;3.90;;;;;;;20.06;72.19;101325.88;698683;28;46313;-62
2021/07/09 00:45:22;;;;;;;4.47;3.92;;;;;;;20.04;72.17;101326.09;698097;28;46356;-62
2021/07/09 00:45:43;;;;;;;4.20;3.80;;;;;;;20.05;71.96;101330.53;699430;28;23390;-62
2021/07/09 00:46:05;;;;;;;4.10;3.80;;;;;;;20.06;72.20;101323.13;699343;28;23467;-62
2021/07/09 00:46:31;;;;;;;4.20;3.80;;;;;;;20.06;72.32;101331.34;698246;28;44392;-61
2021/07/09 00:46:52;;;;;;;5.50;3.80;;;;;;;20.05;72.29;101327.78;695451;28;136741;-62
2021/07/09 00:47:13;;;;;;;4.85;3.80;;;;;;;20.07;72.38;101335.78;699070;28;23360;-62
2021/07/09 00:47:35;;;;;;;4.20;3.80;;;;;;;20.07;72.36;101327.56;700152;28;3405;-62
2021/07/09 00:47:56;;;;;;;4.20;3.90;;;;;;;20.06;72.35;101325.88;698645;28;47313;-62
2021/07/09 00:48:17;;;;;;;4.28;3.88;;;;;;;20.06;72.56;101328.63;698855;28;23231;-62
2021/07/09 00:48:38;;;;;;;4.40;3.92;;;;;;;20.03;72.63;101327.19;697840;28;22105;-62
2021/07/09 00:49:01;;;;;;;4.82;4.25;;;;;;;20.05;72.53;101332.44;699302;28;10451;-62
2021/07/09 00:49:22;;;;;;;4.43;3.83;;;;;;;20.02;72.91;101327.41;697504;28;46281;-62
2021/07/09 00:49:43;;;;;;;4.25;3.83;;;;;;;20.02;72.69;101328.25;699057;28;23499;-62
2021/07/09 00:50:05;;;;;;;4.22;3.83;;;;;;;20.01;72.85;101326.56;699236;28;21190;-62
2021/07/09 00:50:26;;;;;;;4.47;4.10;;;;;;;20.01;72.71;101328.47;696781;28;69411;-62
2021/07/09 00:50:48;;;;;;;4.05;3.75;;;;;;;20.01;72.70;101325.72;698136;28;45264;-62
2021/07/09 00:51:10;;;;;;;3.78;3.58;;;;;;;19.99;72.62;101324.03;700654;28;37566;-63
2021/07/09 00:51:32;;;;;;;4.13;3.83;;;;;;;19.99;72.79;101325.94;701099;28;46957;-62
2021/07/09 00:51:55;;;;;;;4.15;3.92;;;;;;;19.99;72.69;101331.44;701477;28;24359;-62
2021/07/09 00:52:17;;;;;;;4.25;3.85;;;;;;;19.99;72.88;101325.94;699229;28;93253;-60
2021/07/09 00:52:38;;;;;;;4.10;3.80;;;;;;;19.99;72.75;101325.94;701575;28;24339;-62
2021/07/09 00:52:59;;;;;;;4.45;4.05;;;;;;;19.99;73.01;101334.19;699864;28;47268;-62
2021/07/09 00:53:20;;;;;;;4.57;4.18;;;;;;;19.98;72.97;101333.34;699268;28;23475;-62
2021/07/09 00:53:42;;;;;;;4.35;4.05;;;;;;;19.98;72.90;101333.34;698736;28;23541;-63
2021/07/09 00:54:04;;;;;;;4.10;3.80;;;;;;;19.97;72.98;101326.19;698418;28;44692;-62
2021/07/09 00:54:25;;;;;;;4.30;3.97;;;;;;;19.98;73.04;101329.75;699480;28;20796;-62
2021/07/09 00:54:46;;;;;;;4.20;3.80;;;;;;;19.98;72.92;101327.88;699475;28;22379;-62
2021/07/09 00:55:08;;;;;;;4.00;3.70;;;;;;;19.97;73.02;101331.66;699412;28;21522;-62
2021/07/09 00:55:30;;;;;;;4.20;3.90;;;;;;;19.98;72.99;101336.09;697618;28;41495;-62
2021/07/09 00:55:51;;;;;;;4.40;4.00;;;;;;;19.99;73.05;101334.19;698353;28;45486;-62
2021/07/09 00:56:13;;;;;;;4.35;4.00;;;;;;;19.98;72.92;101333.34;699930;28;5675;-62
2021/07/09 00:56:36;;;;;;;4.65;4.30;;;;;;;19.99;73.05;101334.19;699947;28;9520;-62
2021/07/09 00:56:57;;;;;;;5.18;4.30;;;;;;;19.99;72.99;101345.13;697868;28;69388;-62
2021/07/09 00:57:18;;;;;;;4.50;4.10;;;;;;;19.99;73.14;101332.25;698353;28;39881;-62
2021/07/09 00:57:40;;;;;;;4.40;4.10;;;;;;;19.99;72.90;101339.66;699497;28;23397;-62
2021/07/09 00:58:03;;;;;;;4.28;3.97;;;;;;;19.98;73.15;101327.00;698815;28;45427;-63
2021/07/09 00:58:25;;;;;;;4.50;4.20;;;;;;;19.98;73.06;101338.84;697070;28;67065;-63
2021/07/09 00:58:47;;;;;;;5.13;4.47;;;;;;;19.98;72.93;101332.50;699375;28;11391;-63
2021/07/09 00:59:13;;;;;;;4.60;4.20;;;;;;;19.98;73.02;101332.50;698215;28;45261;-62
2021/07/09 00:59:34;;;;;;;4.65;4.10;;;;;;;19.98;73.07;101332.50;696480;28;82050;-62
2021/07/09 00:59:55;;;;;;;5.05;3.85;;;;;;;19.99;73.14;101334.19;699726;28;14097;-62
2021/07/09 01:00:17;;;;;;;4.70;4.10;;;;;;;19.98;73.12;101333.34;699588;28;18184;-62
2021/07/09 01:00:38;;;;;;;4.53;4.07;;;;;;;19.98;73.24;101336.09;697380;28;70309;-61
2021/07/09 01:01:01;;;;;;;4.50;4.10;;;;;;;19.99;73.13;101326.78;698978;28;22227;-62
2021/07/09 01:01:22;;;;;;;4.25;3.85;;;;;;;19.98;73.11;101329.75;698069;28;44399;-63
2021/07/09 01:01:43;;;;;;;4.88;4.05;;;;;;;19.98;73.20;101329.75;698594;28;23464;-62
2021/07/09 01:02:04;;;;;;;5.18;4.20;;;;;;;19.98;73.29;101329.75;699107;28;23501;-62
2021/07/09 01:02:26;;;;;;;4.13;3.85;;;;;;;19.98;73.28;101321.53;698439;28;45266;-62
2021/07/09 01:02:49;;;;;;;4.35;4.00;;;;;;;19.98;73.00;101327.00;697978;28;46817;-62
2021/07/09 01:03:11;;;;;;;4.70;4.10;;;;;;;19.99;73.16;101334.19;698159;28;61244;-62
2021/07/09 01:03:32;;;;;;;4.57;4.20;;;;;;;19.98;73.31;101330.59;699561;28;21520;-63
2021/07/09 01:03:53;;;;;;;4.50;4.10;;;;;;;19.99;73.02;101328.69;698644;28;22100;-62
2021/07/09 01:04:15;;;;;;;4.60;4.20;;;;;;;19.99;73.12;101328.69;698808;28;22397;-62
2021/07/09 01:04:36;;;;;;;5.15;3.97;;;;;;;19.97;73.12;101334.41;695373;28;46272;-62
2021/07/09 01:04:57;;;;;;;4.35;3.92;;;;;;;19.99;73.10;101334.19;696808;28;10474;-62
2021/07/09 01:05:19;;;;;;;5.95;4.15;;;;;;;19.98;73.13;101330.59;696179;28;18023;-63
2021/07/09 01:05:40;;;;;;;7.50;4.45;;;;;;;19.99;73.08;101328.69;695868;28;26185;-62
2021/07/09 01:06:02;;;;;;;6.15;4.03;;;;;;;19.98;73.13;101327.88;696376;28;24352;-62
2021/07/09 01:06:23;;;;;;;4.40;4.00;;;;;;;19.98;73.16;101330.59;696069;28;46316;-62
2021/07/09 01:06:44;;;;;;;4.32;4.00;;;;;;;19.99;73.16;101328.69;699659;28;18679;-62
2021/07/09 01:07:06;;;;;;;4.35;4.00;;;;;;;19.98;73.02;101324.25;699759;28;5513;-62
2021/07/09 01:07:27;;;;;;;4.90;4.10;;;;;;;19.99;73.05;101336.91;697766;28;45403;-62
2021/07/09 01:07:48;;;;;;;4.38;4.03;;;;;;;19.97;73.21;101328.09;699293;28;22609;-63
2021/07/09 01:08:11;;;;;;;4.72;4.10;;;;;;;19.97;73.15;101326.19;699603;28;16944;-62
2021/07/09 01:08:32;;;;;;;4.72;4.32;;;;;;;19.97;73.22;101331.66;697738;28;69440;-62
2021/07/09 01:08:53;;;;;;;4.65;4.25;;;;;;;19.97;73.28;101328.09;698523;28;21523;-62
2021/07/09 01:09:14;;;;;;;4.28;3.88;;;;;;;19.97;73.21;101328.91;699057;28;17409;-62
2021/07/09 01:09:38;;;;;;;4.50;4.10;;;;;;;19.96;73.35;101329.16;699985;28;989;-62
2021/07/09 01:10:00;;;;;;;5.00;4.20;;;;;;;19.96;73.13;101329.16;699242;28;1125;-61
2021/07/09 01:10:23;;;;;;;4.78;4.28;;;;;;;19.96;73.25;101332.72;699675;28;2126;-62
2021/07/09 01:10:46;;;;;;;6.63;4.22;;;;;;;19.96;73.21;101332.72;699714;28;913;-62
2021/07/09 01:11:07;;;;;;;4.90;4.25;;;;;;;19.96;73.14;101327.22;698496;28;32962;-63
2021/07/09 01:11:29;;;;;;;4.22;3.83;;;;;;;19.97;73.10;101331.66;698657;28;46416;-62
2021/07/09 01:11:51;;;;;;;5.72;4.00;;;;;;;19.96;73.30;101335.44;698053;28;43498;-62
2021/07/09 01:12:13;;;;;;;5.38;3.92;;;;;;;19.96;72.94;101337.38;698742;28;22728;-62
2021/07/09 01:12:34;;;;;;;4.20;3.80;;;;;;;19.95;73.14;101332.94;698686;28;46689;-62
2021/07/09 01:12:56;;;;;;;4.50;3.75;;;;;;;19.95;73.33;101338.41;699873;28;1327;-62
2021/07/09 01:13:18;;;;;;;4.60;3.63;;;;;;;19.94;73.26;101334.03;699510;28;22568;-62
2021/07/09 01:13:40;;;;;;;4.40;4.10;;;;;;;19.95;73.35;101336.53;698089;28;44378;-63
2021/07/09 01:14:01;;;;;;;4.47;4.07;;;;;;;19.95;73.17;101327.44;697647;28;46286;-62
2021/07/09 01:14:22;;;;;;;4.82;4.38;;;;;;;19.95;73.33;101330.19;699426;28;23738;-62
2021/07/09 01:14:43;;;;;;;4.47;4.15;;;;;;;19.94;73.21;101332.09;699342;28;23469;-62
2021/07/09 01:15:07;;;;;;;4.50;4.10;;;;;;;19.94;73.22;101328.53;699456;28;21537;-61
2021/07/09 01:15:28;;;;;;;4.60;4.20;;;;;;;19.94;73.29;101328.53;696153;28;90336;-63
2021/07/09 01:15:49;;;;;;;5.63;4.38;;;;;;;19.94;73.15;101329.38;699769;28;11925;-62
2021/07/09 01:16:12;;;;;;;4.65;4.07;;;;;;;19.92;73.11;101323.28;699379;28;22536;-62
2021/07/09 01:16:34;;;;;;;5.65;4.40;;;;;;;19.92;73.08;101323.28;699788;28;883;-63
2021/07/09 01:16:55;;;;;;;4.68;3.90;;;;;;;19.93;73.33;101321.38;699108;28;24759;-62
2021/07/09 01:17:16;;;;;;;4.30;3.70;;;;;;;19.93;73.15;101322.19;698846;28;23232;-62
2021/07/09 01:17:37;;;;;;;4.53;4.20;;;;;;;19.92;73.38;101326.03;698713;28;37453;-62
2021/07/09 01:17:59;;;;;;;4.25;3.90;;;;;;;19.93;73.46;101316.72;700363;28;862;-61
2021/07/09 01:18:21;;;;;;;4.22;3.83;;;;;;;19.93;73.29;101316.72;700118;28;898;-61
2021/07/09 01:18:42;;;;;;;4.45;4.05;;;;;;;19.93;73.34;101326.84;697839;28;46338;-62
2021/07/09 01:19:05;;;;;;;4.20;3.90;;;;;;;19.93;73.36;101324.94;699654;28;6074;-62
2021/07/09 01:19:27;;;;;;;4.25;3.95;;;;;;;19.93;73.35;101318.63;696375;28;68454;-62
2021/07/09 01:19:48;;;;;;;5.05;3.90;;;;;;;19.93;73.25;101324.09;698871;28;22293;-62
2021/07/09 01:20:12;;;;;;;4.32;4.03;;;;;;;19.93;73.20;101318.63;698994;28;22419;-62
2021/07/09 01:20:33;;;;;;;6.75;3.90;;;;;;;19.93;73.43;101318.63;695327;28;114461;-63
2021/07/09 01:20:55;;;;;;;4.30;3.78;;;;;;;19.94;73.29;101323.06;699263;28;23384;-62
2021/07/09 01:21:17;;;;;;;4.40;4.00;;;;;;;19.94;73.27;101323.06;698972;28;21501;-62
2021/07/09 01:21:39;;;;;;;4.20;3.90;;;;;;;19.94;73.42;101323.06;697910;28;45484;-62
2021/07/09 01:22:00;;;;;;;4.43;4.10;;;;;;;19.93;73.27;101313.97;697320;28;69540;-62
2021/07/09 01:22:24;;;;;;;4.90;4.32;;;;;;;19.94;73.26;101314.84;699535;28;23154;-62
2021/07/09 01:22:46;;;;;;;4.93;4.20;;;;;;;19.94;73.40;101320.31;697304;28;69409;-62
2021/07/09 01:23:10;;;;;;;4.75;4.32;;;;;;;19.92;73.45;101315.06;697788;28;69187;-62
2021/07/09 01:23:33;;;;;;;4.60;4.20;;;;;;;19.93;73.32;101319.47;696916;28;92719;-62
2021/07/09 01:23:59;;;;;;;4.72;3.83;;;;;;;19.94;73.58;101317.56;695947;28;70219;-61
2021/07/09 01:24:22;;;;;;;4.45;4.05;;;;;;;19.94;73.40;101314.84;694798;28;136580;-62
2021/07/09 01:24:45;;;;;;;4.05;3.75;;;;;;;19.93;73.25;101311.22;697817;28;67506;-62
2021/07/09 01:25:08;;;;;;;4.47;4.07;;;;;;;19.93;73.41;101311.22;697359;28;70464;-62
2021/07/09 01:25:29;;;;;;;4.32;4.03;;;;;;;19.94;73.36;101314.84;696952;28;68390;-62
2021/07/09 01:25:50;;;;;;;3.90;3.60;;;;;;;19.94;73.40;101310.19;699256;28;24377;-62
2021/07/09 01:26:13;;;;;;;3.90;3.70;;;;;;;19.93;73.30;101308.50;699593;28;1972;-62
2021/07/09 01:26:34;;;;;;;4.35;4.00;;;;;;;19.93;73.46;101307.66;697804;28;45308;-61
2021/07/09 01:26:55;;;;;;;4.18;3.88;;;;;;;19.93;73.53;101313.13;698685;28;39395;-62
2021/07/09 01:27:16;;;;;;;4.17;3.80;;;;;;;19.94;73.67;101306.59;698505;28;32687;-62
2021/07/09 01:27:38;;;;;;;4.25;3.90;;;;;;;19.93;73.48;101305.75;697903;28;43738;-62
2021/07/09 01:28:02;;;;;;;4.90;4.18;;;;;;;19.93;73.10;101311.22;698505;28;44489;-62
2021/07/09 01:28:23;;;;;;;5.68;3.97;;;;;;;19.93;73.47;101308.50;697736;28;69323;-63
2021/07/09 01:28:44;;;;;;;4.25;3.80;;;;;;;19.94;73.35;101309.34;698419;28;15693;-62
2021/07/09 01:29:06;;;;;;;4.47;4.07;;;;;;;19.92;73.57;101306.84;699084;28;24351;-62
2021/07/09 01:29:27;;;;;;;4.40;4.10;;;;;;;19.92;73.39;101305.97;696610;28;66222;-62
2021/07/09 01:29:49;;;;;;;4.57;4.28;;;;;;;19.92;73.63;101309.56;698787;28;19840;-62
2021/07/09 01:30:14;;;;;;;4.03;3.72;;;;;;;19.91;73.63;101316.09;697389;28;69657;-62
2021/07/09 01:30:36;;;;;;;4.30;3.90;;;;;;;19.90;73.69;101317.16;696440;28;90650;-62
2021/07/09 01:30:57;;;;;;;5.40;3.88;;;;;;;19.90;73.83;101305.38;698096;28;46369;-62
2021/07/09 01:31:19;;;;;;;4.68;3.97;;;;;;;19.88;73.95;101302.84;698562;28;21503;-62
2021/07/09 01:31:41;;;;;;;4.28;3.97;;;;;;;19.89;73.79;101310.03;698081;28;47033;-62
2021/07/09 01:32:03;;;;;;;4.00;3.70;;;;;;;19.89;73.90;101309.16;698237;28;47202;-62
2021/07/09 01:32:24;;;;;;;4.00;3.70;;;;;;;19.89;73.92;101306.41;698421;28;32177;-62
2021/07/09 01:32:46;;;;;;;5.32;3.83;;;;;;;19.90;73.85;101306.19;699426;28;12397;-62
2021/07/09 01:33:08;;;;;;;4.28;3.97;;;;;;;19.89;73.98;101309.16;698380;28;47231;-62
2021/07/09 01:33:31;;;;;;;3.92;3.63;;;;;;;19.87;74.07;101303.91;699074;28;33893;-62
2021/07/09 01:33:52;;;;;;;3.92;3.72;;;;;;;19.87;74.07;101305.81;693932;28;49827;-62
2021/07/09 01:34:13;;;;;;;4.07;3.78;;;;;;;19.87;74.15;101306.66;696488;28;22404;-62
2021/07/09 01:34:34;;;;;;;4.20;3.90;;;;;;;19.86;74.19;101302.25;695895;28;22407;-62
2021/07/09 01:34:55;;;;;;;4.00;3.70;;;;;;;19.87;74.17;101309.38;696661;28;22611;-62
2021/07/09 01:35:18;;;;;;;4.22;3.92;;;;;;;19.87;74.15;101308.56;695311;28;21532;-62
2021/07/09 01:35:39;;;;;;;4.38;4.07;;;;;;;19.87;74.12;101305.81;695792;28;45332;-62
2021/07/09 01:36:00;;;;;;;4.85;4.10;;;;;;;19.86;74.19;101304.13;698740;28;23434;-62
2021/07/09 01:36:21;;;;;;;5.60;4.07;;;;;;;19.87;74.18;101308.56;698911;28;23537;-62
2021/07/09 01:36:43;;;;;;;4.60;4.20;;;;;;;19.87;74.18;101305.81;698433;28;37809;-62
2021/07/09 01:37:11;;;;;;;4.05;3.70;;;;;;;19.86;74.17;101306.88;697406;28;43563;-61
2021/07/09 01:37:33;;;;;;;4.95;3.92;;;;;;;19.87;74.06;101300.34;694802;28;138410;-62
2021/07/09 01:37:55;;;;;;;4.80;4.35;;;;;;;19.87;74.16;101303.06;698947;28;17455;-61
2021/07/09 01:38:17;;;;;;;4.60;4.20;;;;;;;19.87;74.28;101297.59;698860;28;27897;-62
2021/07/09 01:38:38;;;;;;;4.35;4.03;;;;;;;19.86;74.43;101298.66;698474;28;46444;-62
2021/07/09 01:39:02;;;;;;;4.38;4.03;;;;;;;19.85;74.49;101297.00;699715;28;869;-62
2021/07/09 01:39:23;;;;;;;4.45;3.92;;;;;;;19.86;74.24;101302.25;696562;28;90441;-62
2021/07/09 01:39:46;;;;;;;4.57;4.18;;;;;;;19.87;74.11;101300.34;698947;28;24558;-62
2021/07/09 01:40:11;;;;;;;4.20;3.80;;;;;;;19.85;74.23;101303.31;699801;28;898;-63
2021/07/09 01:40:33;;;;;;;4.00;3.65;;;;;;;19.86;74.03;101299.50;695599;28;115912;-61
2021/07/09 01:40:55;;;;;;;4.53;4.13;;;;;;;19.85;73.99;101297.81;698584;28;31997;-61
2021/07/09 01:41:17;;;;;;;4.45;4.07;;;;;;;19.86;74.29;101295.91;697484;28;45347;-60
2021/07/09 01:41:39;;;;;;;4.40;4.07;;;;;;;19.85;74.44;101295.09;699621;28;1006;-63
2021/07/09 01:42:00;;;;;;;4.30;4.00;;;;;;;19.85;74.41;101286.84;699235;28;1710;-62
2021/07/09 01:42:21;;;;;;;4.10;3.80;;;;;;;19.85;74.19;101292.34;698429;28;22414;-61
2021/07/09 01:42:43;;;;;;;4.00;3.70;;;;;;;19.85;74.24;101291.50;698829;28;21400;-61